Track Ершова Екатерина

Time Latitude Longitude Accuracy (66% radius in meters) Altitude (meters) Speed (km/hour) Bearing (degrees) Battery (%) GPS flag
08:22:45 60.370995 29.556275 8 74 0 249.6888885498 87 1 delete
08:22:32 60.370963 29.556296 8 77 0.068200543522835 236.06372070312 87 1 delete
08:22:20 60.370975 29.556318 16 86 0 273.11102294922 87 1 delete
08:22:07 60.370970 29.556305 12 91 0 36.494453430176 87 1 delete
08:21:54 60.370959 29.556288 8 82 0 164.9051361084 87 1 delete
08:21:41 60.370946 29.556272 6 74 0 40.92622756958 87 1 delete
08:21:28 60.370944 29.556295 6 78 0 40.92622756958 87 1 delete
08:21:16 60.370963 29.556259 4 76 0 40.92622756958 87 1 delete
08:21:08 60.370972 29.556256 6 90 0 40.92622756958 87 1 delete
08:21:03 60.370966 29.556274 8 88 0 40.92622756958 87 1 delete
08:20:50 60.370957 29.556322 8 80 0 40.92622756958 87 1 delete
08:20:38 60.370946 29.556350 12 75 0 40.92622756958 87 1 delete
08:20:28 60.370950 29.556335 12 90 0 32.53254699707 87 1 delete
08:20:25 60.370985 29.556314 8 92 0 32.53254699707 87 1 delete
08:20:12 60.370978 29.556252 12 85 0.29343780875206 49.52286529541 87 1 delete
08:20:02 60.370997 29.556275 12 73 0 178.63705444336 87 1 delete
08:19:59 60.371036 29.556377 12 78 0 178.63705444336 87 1 delete
08:19:47 60.371036 29.556377 6 83 0 178.63705444336 87 1 delete
08:19:34 60.371036 29.556377 8 77 0 178.63705444336 87 1 delete
08:19:22 60.371036 29.556377 8 78 0 178.63705444336 87 1 delete
08:19:09 60.371075 29.556325 12 78 0 178.63705444336 87 1 delete
08:18:56 60.371095 29.556294 16 73 0 178.63705444336 87 1 delete
08:18:44 60.371090 29.556294 12 68 0 178.63705444336 87 1 delete
08:18:35 60.371066 29.556320 16 78 0 178.63705444336 87 1 delete
08:18:31 60.371054 29.556341 16 77 0 178.63705444336 87 1 delete
08:18:18 60.371028 29.556324 8 88 0 266.02798461914 87 1 delete
08:18:05 60.371033 29.556294 8 74 0 266.02798461914 87 1 delete
08:17:52 60.371031 29.556255 12 69 0 329.52258300781 87 1 delete
08:17:39 60.371010 29.556256 8 76 0 66.097373962402 87 1 delete
08:17:26 60.371011 29.556279 24 81 0.32473376393318 199.97952270508 87 1 delete
08:17:22 60.371021 29.556294 24 81 0.18396569788456 20.027952194214 87 1 delete
08:17:14 60.370987 29.556341 8 80 0 16.721925735474 87 1 delete
08:17:01 60.370968 29.556347 12 79 0 53.944229125977 87 1 delete
08:16:48 60.370985 29.556349 8 75 0 119.77179718018 87 1 delete
08:16:44 60.370998 29.556374 6 73 0 119.77179718018 87 1 delete
08:16:35 60.370990 29.556351 8 71 0 139.93391418457 87 1 delete
08:16:23 60.370965 29.556349 8 69 0 172.85153198242 87 1 delete
08:16:15 60.370955 29.556348 16 76 0.18033045530319 199.92205810547 87 1 delete
08:16:11 60.370974 29.556364 6 79 0 183.07684326172 87 1 delete
08:16:06 60.370997 29.556383 6 72 0 183.07684326172 87 1 delete
08:15:58 60.371057 29.556333 12 68 0 183.07684326172 87 1 delete
08:15:45 60.371047 29.556357 8 60 0 157.59800720215 87 1 delete
08:15:32 60.371031 29.556392 6 77 0 323.56210327148 87 1 delete
08:15:20 60.371023 29.556301 8 68 0 323.56210327148 87 1 delete
08:15:07 60.371035 29.556334 6 67 0 189.16851806641 87 1 delete
08:14:57 60.371066 29.556412 12 65 0 80.049697875977 87 1 delete
08:14:54 60.371074 29.556448 8 66 0 80.049697875977 87 1 delete
08:14:41 60.371081 29.556505 16 88 0 214.8578338623 87 1 delete
08:14:29 60.371075 29.556498 6 91 0 289.19381713867 87 1 delete
08:14:21 60.371068 29.556508 16 91 0 215.24237060547 87 1 delete